sensor_id;sensor_type;location;lat;lon;timestamp;P1;durP1;ratioP1;P2;durP2;ratioP2
57800;SDS011;43627;42.728;23.256;2023-04-03T00:00:52;1.73;;;1.13;;
57800;SDS011;43627;42.728;23.256;2023-04-03T00:03:19;4.28;;;1.23;;
57800;SDS011;43627;42.728;23.256;2023-04-03T00:05:48;3.88;;;1.45;;
57800;SDS011;43627;42.728;23.256;2023-04-03T00:08:15;5.22;;;2.03;;
57800;SDS011;43627;42.728;23.256;2023-04-03T00:10:42;4.05;;;2.13;;
57800;SDS011;43627;42.728;23.256;2023-04-03T00:13:09;5.70;;;2.50;;
57800;SDS011;43627;42.728;23.256;2023-04-03T00:15:36;12.95;;;3.60;;
57800;SDS011;43627;42.728;23.256;2023-04-03T00:18:04;11.85;;;4.40;;
57800;SDS011;43627;42.728;23.256;2023-04-03T00:20:31;14.55;;;5.07;;
57800;SDS011;43627;42.728;23.256;2023-04-03T00:23:00;8.57;;;4.88;;
57800;SDS011;43627;42.728;23.256;2023-04-03T00:25:27;11.98;;;5.25;;
57800;SDS011;43627;42.728;23.256;2023-04-03T00:27:54;8.90;;;4.35;;
57800;SDS011;43627;42.728;23.256;2023-04-03T00:30:22;7.88;;;3.13;;
57800;SDS011;43627;42.728;23.256;2023-04-03T00:32:52;11.20;;;4.47;;
57800;SDS011;43627;42.728;23.256;2023-04-03T00:35:20;8.98;;;4.15;;
57800;SDS011;43627;42.728;23.256;2023-04-03T00:37:48;10.68;;;3.88;;
57800;SDS011;43627;42.728;23.256;2023-04-03T00:40:18;11.05;;;4.20;;
57800;SDS011;43627;42.728;23.256;2023-04-03T00:42:45;14.80;;;5.00;;
57800;SDS011;43627;42.728;23.256;2023-04-03T00:47:55;10.30;;;3.90;;
57800;SDS011;43627;42.728;23.256;2023-04-03T00:50:26;10.65;;;4.65;;
57800;SDS011;43627;42.728;23.256;2023-04-03T00:52:55;4.40;;;2.28;;
57800;SDS011;43627;42.728;23.256;2023-04-03T00:55:22;5.32;;;2.70;;
57800;SDS011;43627;42.728;23.256;2023-04-03T00:57:49;4.72;;;2.05;;
57800;SDS011;43627;42.728;23.256;2023-04-03T01:00:19;5.57;;;1.95;;
57800;SDS011;43627;42.728;23.256;2023-04-03T01:02:49;4.32;;;1.70;;
57800;SDS011;43627;42.728;23.256;2023-04-03T01:05:17;3.30;;;1.73;;
57800;SDS011;43627;42.728;23.256;2023-04-03T01:07:47;4.55;;;1.83;;
57800;SDS011;43627;42.728;23.256;2023-04-03T01:10:16;2.88;;;1.58;;
57800;SDS011;43627;42.728;23.256;2023-04-03T01:12:45;3.45;;;1.63;;
57800;SDS011;43627;42.728;23.256;2023-04-03T01:15:14;3.88;;;1.85;;
57800;SDS011;43627;42.728;23.256;2023-04-03T01:17:53;3.45;;;1.95;;
57800;SDS011;43627;42.728;23.256;2023-04-03T01:28:08;5.57;;;2.33;;
57800;SDS011;43627;42.728;23.256;2023-04-03T01:31:25;5.38;;;2.53;;
57800;SDS011;43627;42.728;23.256;2023-04-03T01:33:43;3.05;;;1.45;;
57800;SDS011;43627;42.728;23.256;2023-04-03T01:36:14;6.25;;;1.85;;
57800;SDS011;43627;42.728;23.256;2023-04-03T01:38:43;5.07;;;1.50;;
57800;SDS011;43627;42.728;23.256;2023-04-03T01:41:10;7.05;;;1.65;;
57800;SDS011;43627;42.728;23.256;2023-04-03T01:43:37;5.40;;;2.25;;
57800;SDS011;43627;42.728;23.256;2023-04-03T01:46:03;2.90;;;1.70;;
57800;SDS011;43627;42.728;23.256;2023-04-03T01:48:30;4.03;;;2.20;;
57800;SDS011;43627;42.728;23.256;2023-04-03T01:50:57;3.30;;;1.60;;
57800;SDS011;43627;42.728;23.256;2023-04-03T01:53:23;5.22;;;1.85;;
57800;SDS011;43627;42.728;23.256;2023-04-03T01:55:50;3.30;;;1.50;;
57800;SDS011;43627;42.728;23.256;2023-04-03T01:58:17;4.75;;;1.98;;
57800;SDS011;43627;42.728;23.256;2023-04-03T02:00:44;3.90;;;1.98;;
57800;SDS011;43627;42.728;23.256;2023-04-03T02:03:10;3.10;;;1.45;;
57800;SDS011;43627;42.728;23.256;2023-04-03T02:05:37;3.88;;;1.98;;
57800;SDS011;43627;42.728;23.256;2023-04-03T02:08:04;4.10;;;2.28;;
57800;SDS011;43627;42.728;23.256;2023-04-03T02:10:31;4.80;;;2.00;;
57800;SDS011;43627;42.728;23.256;2023-04-03T02:12:57;3.25;;;2.03;;
57800;SDS011;43627;42.728;23.256;2023-04-03T02:15:24;6.47;;;2.50;;
57800;SDS011;43627;42.728;23.256;2023-04-03T02:17:51;4.55;;;2.00;;
57800;SDS011;43627;42.728;23.256;2023-04-03T02:20:18;6.13;;;2.25;;
57800;SDS011;43627;42.728;23.256;2023-04-03T02:22:45;3.90;;;2.10;;
57800;SDS011;43627;42.728;23.256;2023-04-03T02:25:13;3.58;;;1.60;;
57800;SDS011;43627;42.728;23.256;2023-04-03T02:27:40;4.55;;;2.15;;
57800;SDS011;43627;42.728;23.256;2023-04-03T02:30:07;2.80;;;1.73;;
57800;SDS011;43627;42.728;23.256;2023-04-03T02:32:36;3.17;;;1.70;;
57800;SDS011;43627;42.728;23.256;2023-04-03T02:35:03;6.10;;;2.00;;
57800;SDS011;43627;42.728;23.256;2023-04-03T02:37:30;3.97;;;1.92;;
57800;SDS011;43627;42.728;23.256;2023-04-03T02:39:57;4.80;;;2.08;;
57800;SDS011;43627;42.728;23.256;2023-04-03T02:42:23;6.35;;;2.75;;
57800;SDS011;43627;42.728;23.256;2023-04-03T02:44:50;13.55;;;3.83;;
57800;SDS011;43627;42.728;23.256;2023-04-03T02:47:16;10.82;;;4.35;;
57800;SDS011;43627;42.728;23.256;2023-04-03T02:49:43;13.02;;;5.65;;
57800;SDS011;43627;42.728;23.256;2023-04-03T02:52:12;21.00;;;5.30;;
57800;SDS011;43627;42.728;23.256;2023-04-03T02:54:39;11.90;;;5.07;;
57800;SDS011;43627;42.728;23.256;2023-04-03T02:57:07;11.02;;;4.25;;
57800;SDS011;43627;42.728;23.256;2023-04-03T02:59:36;6.30;;;2.70;;
57800;SDS011;43627;42.728;23.256;2023-04-03T03:02:09;6.10;;;3.28;;
57800;SDS011;43627;42.728;23.256;2023-04-03T03:04:36;8.77;;;3.80;;
57800;SDS011;43627;42.728;23.256;2023-04-03T03:07:03;12.98;;;5.07;;
57800;SDS011;43627;42.728;23.256;2023-04-03T03:09:30;11.32;;;4.85;;
57800;SDS011;43627;42.728;23.256;2023-04-03T03:11:57;18.23;;;5.00;;
57800;SDS011;43627;42.728;23.256;2023-04-03T03:14:24;12.15;;;4.68;;
57800;SDS011;43627;42.728;23.256;2023-04-03T03:16:50;13.07;;;4.82;;
57800;SDS011;43627;42.728;23.256;2023-04-03T03:19:17;12.80;;;4.57;;
57800;SDS011;43627;42.728;23.256;2023-04-03T03:21:44;10.65;;;4.65;;
57800;SDS011;43627;42.728;23.256;2023-04-03T03:24:11;12.02;;;5.32;;
57800;SDS011;43627;42.728;23.256;2023-04-03T03:26:38;8.00;;;4.20;;
57800;SDS011;43627;42.728;23.256;2023-04-03T03:29:05;13.75;;;4.10;;
57800;SDS011;43627;42.728;23.256;2023-04-03T03:31:31;19.60;;;4.75;;
57800;SDS011;43627;42.728;23.256;2023-04-03T03:33:58;8.07;;;4.05;;
57800;SDS011;43627;42.728;23.256;2023-04-03T03:36:25;6.20;;;3.22;;
57800;SDS011;43627;42.728;23.256;2023-04-03T03:38:51;5.50;;;3.05;;
57800;SDS011;43627;42.728;23.256;2023-04-03T03:41:18;7.57;;;3.28;;
57800;SDS011;43627;42.728;23.256;2023-04-03T03:43:45;6.70;;;3.40;;
57800;SDS011;43627;42.728;23.256;2023-04-03T03:46:11;13.80;;;4.68;;
57800;SDS011;43627;42.728;23.256;2023-04-03T03:48:38;7.88;;;4.05;;
57800;SDS011;43627;42.728;23.256;2023-04-03T03:51:05;8.48;;;4.88;;
57800;SDS011;43627;42.728;23.256;2023-04-03T03:53:32;11.35;;;4.40;;
57800;SDS011;43627;42.728;23.256;2023-04-03T03:55:59;11.48;;;4.20;;
57800;SDS011;43627;42.728;23.256;2023-04-03T03:58:26;9.85;;;4.70;;
57800;SDS011;43627;42.728;23.256;2023-04-03T04:00:53;16.88;;;4.20;;
57800;SDS011;43627;42.728;23.256;2023-04-03T04:03:19;11.10;;;4.43;;
57800;SDS011;43627;42.728;23.256;2023-04-03T04:05:47;10.90;;;5.30;;
57800;SDS011;43627;42.728;23.256;2023-04-03T04:08:14;10.50;;;5.47;;
57800;SDS011;43627;42.728;23.256;2023-04-03T04:10:40;14.18;;;5.05;;
57800;SDS011;43627;42.728;23.256;2023-04-03T04:13:07;16.67;;;6.18;;
57800;SDS011;43627;42.728;23.256;2023-04-03T04:15:34;21.23;;;7.20;;
57800;SDS011;43627;42.728;23.256;2023-04-03T04:18:01;16.70;;;7.30;;
57800;SDS011;43627;42.728;23.256;2023-04-03T04:20:28;19.85;;;6.03;;
57800;SDS011;43627;42.728;23.256;2023-04-03T04:22:55;12.85;;;6.13;;
57800;SDS011;43627;42.728;23.256;2023-04-03T04:25:21;17.60;;;6.80;;
57800;SDS011;43627;42.728;23.256;2023-04-03T04:27:48;16.17;;;5.78;;
57800;SDS011;43627;42.728;23.256;2023-04-03T04:30:15;11.02;;;6.53;;
57800;SDS011;43627;42.728;23.256;2023-04-03T04:32:42;20.25;;;6.88;;
57800;SDS011;43627;42.728;23.256;2023-04-03T04:35:09;14.02;;;7.05;;
57800;SDS011;43627;42.728;23.256;2023-04-03T04:37:36;9.98;;;4.20;;
57800;SDS011;43627;42.728;23.256;2023-04-03T04:40:02;17.08;;;4.30;;
57800;SDS011;43627;42.728;23.256;2023-04-03T04:42:29;11.07;;;4.50;;
57800;SDS011;43627;42.728;23.256;2023-04-03T04:44:56;12.75;;;5.38;;
57800;SDS011;43627;42.728;23.256;2023-04-03T04:47:22;12.32;;;5.60;;
57800;SDS011;43627;42.728;23.256;2023-04-03T04:49:49;19.52;;;5.68;;
57800;SDS011;43627;42.728;23.256;2023-04-03T04:52:16;17.92;;;5.43;;
57800;SDS011;43627;42.728;23.256;2023-04-03T04:54:42;18.30;;;6.68;;
57800;SDS011;43627;42.728;23.256;2023-04-03T04:57:09;25.25;;;7.47;;
57800;SDS011;43627;42.728;23.256;2023-04-03T04:59:37;27.38;;;6.90;;
57800;SDS011;43627;42.728;23.256;2023-04-03T05:02:04;30.52;;;8.75;;
57800;SDS011;43627;42.728;23.256;2023-04-03T05:04:31;21.98;;;8.27;;
57800;SDS011;43627;42.728;23.256;2023-04-03T05:06:58;21.73;;;8.20;;
57800;SDS011;43627;42.728;23.256;2023-04-03T05:09:25;27.73;;;8.75;;
57800;SDS011;43627;42.728;23.256;2023-04-03T05:11:52;27.10;;;8.45;;
57800;SDS011;43627;42.728;23.256;2023-04-03T05:14:19;36.15;;;10.38;;
57800;SDS011;43627;42.728;23.256;2023-04-03T05:16:46;32.03;;;11.32;;
57800;SDS011;43627;42.728;23.256;2023-04-03T05:19:16;23.10;;;9.65;;
57800;SDS011;43627;42.728;23.256;2023-04-03T05:21:43;26.38;;;9.68;;
57800;SDS011;43627;42.728;23.256;2023-04-03T05:24:09;24.35;;;9.70;;
57800;SDS011;43627;42.728;23.256;2023-04-03T05:26:36;23.30;;;9.90;;
57800;SDS011;43627;42.728;23.256;2023-04-03T05:29:03;22.90;;;8.88;;
57800;SDS011;43627;42.728;23.256;2023-04-03T05:31:30;15.52;;;7.63;;
57800;SDS011;43627;42.728;23.256;2023-04-03T05:33:56;15.40;;;6.43;;
57800;SDS011;43627;42.728;23.256;2023-04-03T05:36:24;11.20;;;5.22;;
57800;SDS011;43627;42.728;23.256;2023-04-03T05:38:52;11.95;;;6.05;;
57800;SDS011;43627;42.728;23.256;2023-04-03T05:41:19;21.83;;;5.47;;
57800;SDS011;43627;42.728;23.256;2023-04-03T05:43:47;13.77;;;6.03;;
57800;SDS011;43627;42.728;23.256;2023-04-03T05:46:15;18.85;;;6.03;;
57800;SDS011;43627;42.728;23.256;2023-04-03T05:48:43;20.55;;;6.38;;
57800;SDS011;43627;42.728;23.256;2023-04-03T05:51:17;9.82;;;4.30;;
57800;SDS011;43627;42.728;23.256;2023-04-03T05:53:45;8.80;;;4.03;;
57800;SDS011;43627;42.728;23.256;2023-04-03T05:56:13;11.98;;;3.90;;
57800;SDS011;43627;42.728;23.256;2023-04-03T05:58:40;9.02;;;4.15;;
57800;SDS011;43627;42.728;23.256;2023-04-03T06:01:07;9.90;;;3.20;;
57800;SDS011;43627;42.728;23.256;2023-04-03T06:03:34;10.85;;;4.10;;
57800;SDS011;43627;42.728;23.256;2023-04-03T06:06:03;7.93;;;4.55;;
57800;SDS011;43627;42.728;23.256;2023-04-03T06:08:31;11.20;;;4.63;;
57800;SDS011;43627;42.728;23.256;2023-04-03T06:10:58;16.63;;;4.55;;
57800;SDS011;43627;42.728;23.256;2023-04-03T06:13:26;16.63;;;5.72;;
57800;SDS011;43627;42.728;23.256;2023-04-03T06:15:52;23.02;;;6.90;;
57800;SDS011;43627;42.728;23.256;2023-04-03T06:18:19;19.92;;;7.90;;
57800;SDS011;43627;42.728;23.256;2023-04-03T06:20:45;23.20;;;7.95;;
57800;SDS011;43627;42.728;23.256;2023-04-03T06:23:12;19.90;;;7.18;;
57800;SDS011;43627;42.728;23.256;2023-04-03T06:25:39;13.07;;;6.28;;
57800;SDS011;43627;42.728;23.256;2023-04-03T06:28:06;24.95;;;7.95;;
57800;SDS011;43627;42.728;23.256;2023-04-03T06:30:35;16.67;;;6.50;;
57800;SDS011;43627;42.728;23.256;2023-04-03T06:33:04;22.70;;;6.22;;
57800;SDS011;43627;42.728;23.256;2023-04-03T06:35:31;14.52;;;6.53;;
57800;SDS011;43627;42.728;23.256;2023-04-03T06:37:57;17.88;;;6.55;;
57800;SDS011;43627;42.728;23.256;2023-04-03T06:40:24;16.75;;;7.72;;
57800;SDS011;43627;42.728;23.256;2023-04-03T06:42:52;19.75;;;6.70;;
57800;SDS011;43627;42.728;23.256;2023-04-03T06:45:19;18.50;;;6.45;;
57800;SDS011;43627;42.728;23.256;2023-04-03T06:47:46;12.13;;;5.95;;
57800;SDS011;43627;42.728;23.256;2023-04-03T06:50:13;15.32;;;5.75;;
57800;SDS011;43627;42.728;23.256;2023-04-03T06:52:41;14.48;;;5.95;;
57800;SDS011;43627;42.728;23.256;2023-04-03T06:55:08;15.45;;;5.30;;
57800;SDS011;43627;42.728;23.256;2023-04-03T06:57:35;12.95;;;5.97;;
57800;SDS011;43627;42.728;23.256;2023-04-03T07:00:03;11.65;;;5.05;;
57800;SDS011;43627;42.728;23.256;2023-04-03T07:02:31;13.30;;;5.75;;
57800;SDS011;43627;42.728;23.256;2023-04-03T07:04:57;18.75;;;7.05;;
57800;SDS011;43627;42.728;23.256;2023-04-03T07:07:24;11.82;;;6.03;;
57800;SDS011;43627;42.728;23.256;2023-04-03T07:09:51;13.93;;;5.43;;
57800;SDS011;43627;42.728;23.256;2023-04-03T07:12:18;15.55;;;6.50;;
57800;SDS011;43627;42.728;23.256;2023-04-03T07:14:45;13.05;;;6.18;;
57800;SDS011;43627;42.728;23.256;2023-04-03T07:17:11;12.82;;;5.35;;
57800;SDS011;43627;42.728;23.256;2023-04-03T07:19:38;13.52;;;5.47;;
57800;SDS011;43627;42.728;23.256;2023-04-03T07:22:05;18.63;;;7.63;;
57800;SDS011;43627;42.728;23.256;2023-04-03T07:24:32;10.35;;;5.25;;
57800;SDS011;43627;42.728;23.256;2023-04-03T07:26:59;11.02;;;4.82;;
57800;SDS011;43627;42.728;23.256;2023-04-03T07:29:26;14.40;;;4.75;;
57800;SDS011;43627;42.728;23.256;2023-04-03T07:31:53;12.52;;;4.38;;
57800;SDS011;43627;42.728;23.256;2023-04-03T07:34:21;14.15;;;4.28;;
57800;SDS011;43627;42.728;23.256;2023-04-03T07:36:48;14.32;;;5.10;;
57800;SDS011;43627;42.728;23.256;2023-04-03T07:39:15;11.38;;;3.50;;
57800;SDS011;43627;42.728;23.256;2023-04-03T07:41:41;7.55;;;3.08;;
57800;SDS011;43627;42.728;23.256;2023-04-03T07:44:08;5.95;;;3.10;;
57800;SDS011;43627;42.728;23.256;2023-04-03T07:46:36;7.45;;;4.03;;
57800;SDS011;43627;42.728;23.256;2023-04-03T07:49:04;7.72;;;3.97;;
57800;SDS011;43627;42.728;23.256;2023-04-03T07:51:31;6.28;;;3.13;;
57800;SDS011;43627;42.728;23.256;2023-04-03T07:53:57;13.60;;;5.00;;
57800;SDS011;43627;42.728;23.256;2023-04-03T07:56:24;8.35;;;3.97;;
57800;SDS011;43627;42.728;23.256;2023-04-03T07:58:51;7.28;;;4.57;;
57800;SDS011;43627;42.728;23.256;2023-04-03T08:01:18;10.73;;;3.60;;
57800;SDS011;43627;42.728;23.256;2023-04-03T08:03:44;9.43;;;4.55;;
57800;SDS011;43627;42.728;23.256;2023-04-03T08:06:11;18.33;;;4.70;;
57800;SDS011;43627;42.728;23.256;2023-04-03T08:08:43;10.18;;;4.13;;
57800;SDS011;43627;42.728;23.256;2023-04-03T08:11:11;12.55;;;5.60;;
57800;SDS011;43627;42.728;23.256;2023-04-03T08:13:38;13.75;;;4.10;;
57800;SDS011;43627;42.728;23.256;2023-04-03T08:16:08;11.57;;;3.90;;
57800;SDS011;43627;42.728;23.256;2023-04-03T08:18:38;13.05;;;4.35;;
57800;SDS011;43627;42.728;23.256;2023-04-03T08:21:06;7.18;;;3.10;;
57800;SDS011;43627;42.728;23.256;2023-04-03T08:23:34;9.52;;;2.95;;
57800;SDS011;43627;42.728;23.256;2023-04-03T08:26:14;10.85;;;3.78;;
57800;SDS011;43627;42.728;23.256;2023-04-03T08:28:42;7.15;;;4.00;;
57800;SDS011;43627;42.728;23.256;2023-04-03T08:31:13;13.77;;;5.03;;
57800;SDS011;43627;42.728;23.256;2023-04-03T08:33:42;8.65;;;4.50;;
57800;SDS011;43627;42.728;23.256;2023-04-03T08:36:16;11.10;;;5.28;;
57800;SDS011;43627;42.728;23.256;2023-04-03T08:38:46;14.85;;;5.25;;
57800;SDS011;43627;42.728;23.256;2023-04-03T08:41:16;10.90;;;5.60;;
57800;SDS011;43627;42.728;23.256;2023-04-03T08:52:16;15.48;;;6.28;;
57800;SDS011;43627;42.728;23.256;2023-04-03T08:54:49;13.05;;;6.15;;
57800;SDS011;43627;42.728;23.256;2023-04-03T08:57:20;18.83;;;6.50;;
57800;SDS011;43627;42.728;23.256;2023-04-03T09:00:20;15.07;;;6.88;;
57800;SDS011;43627;42.728;23.256;2023-04-03T09:02:52;11.25;;;5.88;;
57800;SDS011;43627;42.728;23.256;2023-04-03T09:08:28;20.73;;;7.28;;
57800;SDS011;43627;42.728;23.256;2023-04-03T09:14:12;18.75;;;6.18;;
57800;SDS011;43627;42.728;23.256;2023-04-03T09:16:55;21.30;;;7.70;;
57800;SDS011;43627;42.728;23.256;2023-04-03T09:21:58;19.88;;;7.75;;
57800;SDS011;43627;42.728;23.256;2023-04-03T09:24:28;22.67;;;6.67;;
57800;SDS011;43627;42.728;23.256;2023-04-03T09:27:01;16.98;;;8.18;;
57800;SDS011;43627;42.728;23.256;2023-04-03T09:29:32;16.33;;;8.68;;
57800;SDS011;43627;42.728;23.256;2023-04-03T09:32:11;15.85;;;7.53;;
57800;SDS011;43627;42.728;23.256;2023-04-03T09:34:48;22.77;;;6.47;;
57800;SDS011;43627;42.728;23.256;2023-04-03T09:37:32;19.80;;;7.78;;
57800;SDS011;43627;42.728;23.256;2023-04-03T09:40:05;21.13;;;7.53;;
57800;SDS011;43627;42.728;23.256;2023-04-03T09:42:52;21.77;;;7.50;;
57800;SDS011;43627;42.728;23.256;2023-04-03T09:45:31;12.70;;;7.07;;
57800;SDS011;43627;42.728;23.256;2023-04-03T09:53:40;15.80;;;7.85;;
57800;SDS011;43627;42.728;23.256;2023-04-03T09:56:18;21.95;;;8.30;;
57800;SDS011;43627;42.728;23.256;2023-04-03T09:59:13;18.38;;;8.65;;
57800;SDS011;43627;42.728;23.256;2023-04-03T10:01:42;14.98;;;7.63;;
57800;SDS011;43627;42.728;23.256;2023-04-03T10:04:23;11.38;;;6.22;;
57800;SDS011;43627;42.728;23.256;2023-04-03T10:06:54;15.48;;;6.53;;
57800;SDS011;43627;42.728;23.256;2023-04-03T10:12:05;18.88;;;7.63;;
57800;SDS011;43627;42.728;23.256;2023-04-03T10:14:35;14.05;;;8.82;;
57800;SDS011;43627;42.728;23.256;2023-04-03T10:20:02;14.32;;;6.25;;
57800;SDS011;43627;42.728;23.256;2023-04-03T10:28:25;12.75;;;6.68;;
57800;SDS011;43627;42.728;23.256;2023-04-03T10:45:28;16.60;;;4.97;;
57800;SDS011;43627;42.728;23.256;2023-04-03T10:56:41;13.75;;;4.03;;
57800;SDS011;43627;42.728;23.256;2023-04-03T11:02:23;9.82;;;3.28;;
57800;SDS011;43627;42.728;23.256;2023-04-03T11:04:55;12.25;;;4.40;;
57800;SDS011;43627;42.728;23.256;2023-04-03T11:07:28;6.43;;;3.53;;
57800;SDS011;43627;42.728;23.256;2023-04-03T11:10:09;31.63;;;5.40;;
57800;SDS011;43627;42.728;23.256;2023-04-03T11:12:46;7.80;;;3.47;;
57800;SDS011;43627;42.728;23.256;2023-04-03T11:15:15;9.68;;;3.63;;
57800;SDS011;43627;42.728;23.256;2023-04-03T11:17:54;5.15;;;3.00;;
57800;SDS011;43627;42.728;23.256;2023-04-03T11:20:30;6.90;;;2.85;;
57800;SDS011;43627;42.728;23.256;2023-04-03T11:23:01;7.72;;;3.13;;
57800;SDS011;43627;42.728;23.256;2023-04-03T11:25:31;6.85;;;2.25;;
57800;SDS011;43627;42.728;23.256;2023-04-03T11:28:05;9.33;;;3.30;;
57800;SDS011;43627;42.728;23.256;2023-04-03T11:36:08;7.22;;;3.13;;
57800;SDS011;43627;42.728;23.256;2023-04-03T11:38:56;11.00;;;3.45;;
57800;SDS011;43627;42.728;23.256;2023-04-03T11:41:28;4.78;;;2.92;;
57800;SDS011;43627;42.728;23.256;2023-04-03T11:44:06;7.07;;;3.60;;
57800;SDS011;43627;42.728;23.256;2023-04-03T11:46:54;6.53;;;3.25;;
57800;SDS011;43627;42.728;23.256;2023-04-03T11:58:01;7.38;;;3.85;;
57800;SDS011;43627;42.728;23.256;2023-04-03T12:16:22;9.40;;;4.53;;
57800;SDS011;43627;42.728;23.256;2023-04-03T12:21:23;10.60;;;5.47;;
57800;SDS011;43627;42.728;23.256;2023-04-03T12:26:45;8.75;;;4.53;;
57800;SDS011;43627;42.728;23.256;2023-04-03T12:31:56;8.43;;;3.78;;
57800;SDS011;43627;42.728;23.256;2023-04-03T12:34:51;6.18;;;3.60;;
57800;SDS011;43627;42.728;23.256;2023-04-03T12:40:16;5.63;;;3.17;;
57800;SDS011;43627;42.728;23.256;2023-04-03T12:48:11;6.68;;;3.47;;
57800;SDS011;43627;42.728;23.256;2023-04-03T12:50:41;6.70;;;3.55;;
57800;SDS011;43627;42.728;23.256;2023-04-03T12:53:13;4.63;;;2.28;;
57800;SDS011;43627;42.728;23.256;2023-04-03T12:55:44;3.80;;;2.60;;
57800;SDS011;43627;42.728;23.256;2023-04-03T12:58:22;8.60;;;3.33;;
57800;SDS011;43627;42.728;23.256;2023-04-03T13:01:01;6.38;;;3.70;;
57800;SDS011;43627;42.728;23.256;2023-04-03T13:03:40;5.80;;;3.95;;
57800;SDS011;43627;42.728;23.256;2023-04-03T13:06:14;8.93;;;4.20;;
57800;SDS011;43627;42.728;23.256;2023-04-03T13:08:51;8.07;;;4.93;;
57800;SDS011;43627;42.728;23.256;2023-04-03T13:11:19;7.43;;;3.45;;
57800;SDS011;43627;42.728;23.256;2023-04-03T13:13:55;8.05;;;3.60;;
57800;SDS011;43627;42.728;23.256;2023-04-03T13:16:23;21.75;;;11.23;;
57800;SDS011;43627;42.728;23.256;2023-04-03T13:18:51;10.40;;;5.00;;
57800;SDS011;43627;42.728;23.256;2023-04-03T13:21:21;10.52;;;4.15;;
57800;SDS011;43627;42.728;23.256;2023-04-03T13:23:57;6.97;;;4.45;;
57800;SDS011;43627;42.728;23.256;2023-04-03T13:26:40;9.02;;;5.80;;
57800;SDS011;43627;42.728;23.256;2023-04-03T13:29:18;11.98;;;6.45;;
57800;SDS011;43627;42.728;23.256;2023-04-03T13:31:56;17.15;;;6.13;;
57800;SDS011;43627;42.728;23.256;2023-04-03T13:34:26;14.50;;;6.63;;
57800;SDS011;43627;42.728;23.256;2023-04-03T13:36:58;11.38;;;7.30;;
57800;SDS011;43627;42.728;23.256;2023-04-03T13:39:28;14.13;;;6.63;;
57800;SDS011;43627;42.728;23.256;2023-04-03T13:41:58;13.85;;;6.05;;
57800;SDS011;43627;42.728;23.256;2023-04-03T13:46:58;12.07;;;7.15;;
57800;SDS011;43627;42.728;23.256;2023-04-03T13:49:39;9.93;;;6.50;;
57800;SDS011;43627;42.728;23.256;2023-04-03T13:54:51;9.63;;;5.50;;
57800;SDS011;43627;42.728;23.256;2023-04-03T13:57:29;10.75;;;7.05;;
57800;SDS011;43627;42.728;23.256;2023-04-03T13:59:56;13.77;;;8.52;;
57800;SDS011;43627;42.728;23.256;2023-04-03T14:02:32;14.93;;;8.05;;
57800;SDS011;43627;42.728;23.256;2023-04-03T14:05:00;24.83;;;9.63;;
57800;SDS011;43627;42.728;23.256;2023-04-03T14:07:29;19.30;;;11.02;;
57800;SDS011;43627;42.728;23.256;2023-04-03T14:09:57;18.15;;;11.02;;
57800;SDS011;43627;42.728;23.256;2023-04-03T14:12:27;16.25;;;7.68;;
57800;SDS011;43627;42.728;23.256;2023-04-03T14:14:58;11.88;;;6.38;;
57800;SDS011;43627;42.728;23.256;2023-04-03T14:17:27;13.23;;;8.15;;
57800;SDS011;43627;42.728;23.256;2023-04-03T14:19:55;7.85;;;5.40;;
57800;SDS011;43627;42.728;23.256;2023-04-03T14:22:24;8.20;;;5.78;;
57800;SDS011;43627;42.728;23.256;2023-04-03T14:24:55;17.02;;;7.82;;
57800;SDS011;43627;42.728;23.256;2023-04-03T14:29:51;8.65;;;6.05;;
57800;SDS011;43627;42.728;23.256;2023-04-03T14:32:20;9.50;;;4.93;;
57800;SDS011;43627;42.728;23.256;2023-04-03T14:34:49;10.55;;;6.50;;
57800;SDS011;43627;42.728;23.256;2023-04-03T14:37:35;11.85;;;6.88;;
57800;SDS011;43627;42.728;23.256;2023-04-03T14:40:03;9.43;;;6.57;;
57800;SDS011;43627;42.728;23.256;2023-04-03T14:42:33;11.63;;;6.65;;
57800;SDS011;43627;42.728;23.256;2023-04-03T14:45:03;8.93;;;4.60;;
57800;SDS011;43627;42.728;23.256;2023-04-03T14:47:32;8.35;;;5.05;;
57800;SDS011;43627;42.728;23.256;2023-04-03T14:50:00;10.57;;;5.43;;
57800;SDS011;43627;42.728;23.256;2023-04-03T14:52:29;7.97;;;4.25;;
57800;SDS011;43627;42.728;23.256;2023-04-03T14:54:58;12.82;;;7.28;;
57800;SDS011;43627;42.728;23.256;2023-04-03T14:57:27;11.82;;;7.95;;
57800;SDS011;43627;42.728;23.256;2023-04-03T14:59:55;11.10;;;7.35;;
57800;SDS011;43627;42.728;23.256;2023-04-03T15:04:58;7.25;;;4.85;;
57800;SDS011;43627;42.728;23.256;2023-04-03T15:07:27;6.82;;;4.53;;
57800;SDS011;43627;42.728;23.256;2023-04-03T15:09:55;6.75;;;4.53;;
57800;SDS011;43627;42.728;23.256;2023-04-03T15:12:23;10.85;;;4.82;;
57800;SDS011;43627;42.728;23.256;2023-04-03T15:14:51;13.00;;;6.15;;
57800;SDS011;43627;42.728;23.256;2023-04-03T15:17:28;9.63;;;5.55;;
57800;SDS011;43627;42.728;23.256;2023-04-03T15:19:55;4.93;;;3.67;;
57800;SDS011;43627;42.728;23.256;2023-04-03T15:22:22;7.65;;;4.70;;
57800;SDS011;43627;42.728;23.256;2023-04-03T15:24:48;10.13;;;5.25;;
57800;SDS011;43627;42.728;23.256;2023-04-03T15:27:15;7.65;;;4.70;;
57800;SDS011;43627;42.728;23.256;2023-04-03T15:29:43;6.38;;;4.40;;
57800;SDS011;43627;42.728;23.256;2023-04-03T15:32:11;7.13;;;3.95;;
57800;SDS011;43627;42.728;23.256;2023-04-03T15:34:39;8.98;;;4.85;;
57800;SDS011;43627;42.728;23.256;2023-04-03T15:37:06;9.80;;;4.85;;
57800;SDS011;43627;42.728;23.256;2023-04-03T15:39:33;9.15;;;6.13;;
57800;SDS011;43627;42.728;23.256;2023-04-03T15:41:59;11.15;;;5.90;;
57800;SDS011;43627;42.728;23.256;2023-04-03T15:44:33;9.63;;;6.15;;
57800;SDS011;43627;42.728;23.256;2023-04-03T15:47:01;12.75;;;7.18;;
57800;SDS011;43627;42.728;23.256;2023-04-03T15:49:28;15.50;;;8.07;;
57800;SDS011;43627;42.728;23.256;2023-04-03T15:51:56;16.23;;;8.73;;
57800;SDS011;43627;42.728;23.256;2023-04-03T15:54:22;16.73;;;7.75;;
57800;SDS011;43627;42.728;23.256;2023-04-03T15:56:51;12.35;;;7.38;;
57800;SDS011;43627;42.728;23.256;2023-04-03T15:59:18;11.30;;;7.20;;
57800;SDS011;43627;42.728;23.256;2023-04-03T16:01:45;13.30;;;7.72;;
57800;SDS011;43627;42.728;23.256;2023-04-03T16:04:12;12.40;;;8.27;;
57800;SDS011;43627;42.728;23.256;2023-04-03T16:06:41;14.50;;;8.20;;
57800;SDS011;43627;42.728;23.256;2023-04-03T16:09:08;20.65;;;8.30;;
57800;SDS011;43627;42.728;23.256;2023-04-03T16:11:36;15.90;;;8.30;;
57800;SDS011;43627;42.728;23.256;2023-04-03T16:14:06;11.55;;;6.53;;
57800;SDS011;43627;42.728;23.256;2023-04-03T16:16:33;14.10;;;8.50;;
57800;SDS011;43627;42.728;23.256;2023-04-03T16:19:02;13.38;;;6.60;;
57800;SDS011;43627;42.728;23.256;2023-04-03T16:21:29;8.88;;;5.30;;
57800;SDS011;43627;42.728;23.256;2023-04-03T16:23:57;11.38;;;5.88;;
57800;SDS011;43627;42.728;23.256;2023-04-03T16:26:24;12.27;;;6.38;;
57800;SDS011;43627;42.728;23.256;2023-04-03T16:28:53;7.55;;;4.45;;
57800;SDS011;43627;42.728;23.256;2023-04-03T16:31:23;11.10;;;4.22;;
57800;SDS011;43627;42.728;23.256;2023-04-03T16:33:51;7.15;;;3.72;;
57800;SDS011;43627;42.728;23.256;2023-04-03T16:36:19;4.60;;;3.95;;
57800;SDS011;43627;42.728;23.256;2023-04-03T16:38:46;9.43;;;4.68;;
57800;SDS011;43627;42.728;23.256;2023-04-03T16:41:12;7.30;;;4.40;;
57800;SDS011;43627;42.728;23.256;2023-04-03T16:43:39;9.20;;;4.75;;
57800;SDS011;43627;42.728;23.256;2023-04-03T16:46:11;11.65;;;6.20;;